Terminal Aerodrome Forecast
Issued by NWS Tampa Bay Area, FL

Home | Current Version | Previous Version | Text Only | Print | Product List | Glossary On
Versions: 1 2 3 4 5 6 7 8 9 10 11 12 13 14 15 16 17 18 19 20 21
135
FTUS42 KTBW 080522
TAFFMY
TAF
KFMY 080522Z 0806/0906 01005KT P6SM BKN080
     FM081400 02006KT P6SM SCT025 BKN050 BKN100
     FM081800 01009KT P6SM BKN045 OVC080=

USA.gov is the U.S. government's official web portal to all federal, state and local government web resources and services.